Pagrindinis puslapis
METAR-TAF:

METAR-TAF

Oro uostai :

Fodža, Italija

platuma: 41-32N, ilguma: 015-43E, Aukštis: 57 m

Dabartinis oras

Ataskaita buvo paskelbta 47 minutes, ne 20:55 UTC
Vėjas 7 kt iš Vakarų
Temperatūra 10°C
Drėgmė 53%
Slėgis 1021 hPa
Matomumas 10 km arba daugiau
nėra debesų žemiau 1500 m ir nėra kamuolinių lietaus debesų

METAR: LIBA 092055Z 28007KT CAVOK 10/01 Q1021 RMK SKC VIS MIN 9999 WIND THR11 29009KT WIND THR29 /////KT BLU

Laikas: 23:42 (21:42 UTC)

Prognozė

Ataskaita buvo paskelbta 1 valandą ir 42 minutes, ne 20:00 UTC
Prognozė galioja nuo 09 metu 21 UTC su 10 metu 06 UTC
Vėjas 8 kt iš Vakarų/Šiaurės Vakarų
Matomumas 10 km arba daugiau
nėra debesų žemiau 1500 m ir nėra kamuolinių lietaus debesų

TAF: LIBA 092000Z 0921/1006 29008KT CAVOK

Orai ataskaitas ir orų prognozės (METAR, TAF).

turimą stotys yra geltonos ir raudonos taškus žemėlapyje.

Perkelti pele per norėdami pamatyti stoties vardą.

Tada spustelėkite, norėdami matyti oro stebėjimo ir prognozės.

Norėdami pakeisti žemėlapį: spustelėkite ant žalios mygtukų su juodo kryžiaus žemyn,; žalią mygtuką su brūkšneliu, jei norite nutolinti; arba žalių rodyklių gretimoms žemėlapius.


METAR-TAF: